Time;durP1;ratioP1;P1;durP2;ratioP2;P2;SDS_P1;SDS_P2;PMS_P1;PMS_P2;Temp;Humidity;BMP_temperature;BMP_pressure;BME280_temperature;BME280_humidity;BME280_pressure;Samples;Min_cycle;Max_cycle;Signal;HPM_P1;HPM_P2
2022/12/06 00:00:42;;;;;;;5.05;2.70;;;;;;;;;;7384907;19;20785;-75
2022/12/06 00:03:07;;;;;;;6.03;2.88;;;;;;;;;;7384887;19;19998;-75
2022/12/06 00:05:33;;;;;;;5.60;2.80;;;;;;;;;;7391213;19;20007;-75
2022/12/06 00:07:58;;;;;;;5.80;2.92;;;;;;;;;;7387937;19;20007;-75
2022/12/06 00:10:24;;;;;;;4.85;2.50;;;;;;;;;;7389235;19;20019;-75
2022/12/06 00:12:50;;;;;;;4.88;2.35;;;;;;;;;;7395260;19;20002;-75
2022/12/06 00:15:16;;;;;;;7.20;2.78;;;;;;;;;;7394948;19;20006;-76
2022/12/06 00:17:41;;;;;;;5.82;2.80;;;;;;;;;;7395060;19;20009;-76
2022/12/06 00:20:07;;;;;;;4.88;2.70;;;;;;;;;;7390765;19;20007;-75
2022/12/06 00:22:32;;;;;;;4.80;2.55;;;;;;;;;;7394436;19;20010;-76
2022/12/06 00:24:58;;;;;;;5.93;2.50;;;;;;;;;;7396216;19;20007;-74
2022/12/06 00:27:23;;;;;;;4.63;2.60;;;;;;;;;;7392035;19;20003;-75
2022/12/06 00:29:48;;;;;;;4.45;2.53;;;;;;;;;;7399399;19;20015;-75
2022/12/06 00:32:13;;;;;;;4.85;2.50;;;;;;;;;;7394892;19;20016;-75
2022/12/06 00:34:39;;;;;;;4.65;2.63;;;;;;;;;;7394452;19;20361;-75
2022/12/06 00:37:04;;;;;;;6.45;3.13;;;;;;;;;;7392251;19;20005;-75
2022/12/06 00:39:30;;;;;;;5.43;2.90;;;;;;;;;;7392717;19;20025;-76
2022/12/06 00:41:55;;;;;;;5.70;3.30;;;;;;;;;;7393263;19;20007;-75
2022/12/06 00:44:20;;;;;;;5.22;2.90;;;;;;;;;;7394159;19;20003;-74
2022/12/06 00:46:46;;;;;;;4.75;2.70;;;;;;;;;;7393248;19;20006;-74
2022/12/06 00:49:11;;;;;;;5.28;2.80;;;;;;;;;;7400797;19;20082;-76
2022/12/06 00:51:38;;;;;;;4.18;2.42;;;;;;;;;;7405201;19;20002;-74
2022/12/06 00:54:04;;;;;;;4.28;2.58;;;;;;;;;;7400391;19;20009;-75
2022/12/06 00:56:30;;;;;;;4.70;2.50;;;;;;;;;;7393129;19;20324;-74
2022/12/06 00:58:56;;;;;;;5.88;2.60;;;;;;;;;;7391534;19;20003;-75
2022/12/06 01:01:25;;;;;;;5.68;2.90;;;;;;;;;;7394128;19;20009;-75
2022/12/06 01:03:54;;;;;;;3.67;2.33;;;;;;;;;;7394982;19;20110;-75
2022/12/06 01:06:26;;;;;;;5.97;2.75;;;;;;;;;;7394959;19;20004;-75
2022/12/06 01:08:53;;;;;;;5.43;2.90;;;;;;;;;;7394701;19;20006;-75
2022/12/06 01:11:19;;;;;;;5.95;2.90;;;;;;;;;;7394171;19;19994;-75
2022/12/06 01:13:44;;;;;;;5.68;2.97;;;;;;;;;;7393556;19;20599;-74
2022/12/06 01:16:15;;;;;;;4.50;2.58;;;;;;;;;;7392485;19;19998;-76
2022/12/06 01:18:42;;;;;;;4.32;2.40;;;;;;;;;;7392502;19;19998;-76
2022/12/06 01:21:17;;;;;;;4.65;2.63;;;;;;;;;;7393663;19;19994;-74
2022/12/06 01:23:43;;;;;;;4.47;2.45;;;;;;;;;;7392221;19;19998;-76
2022/12/06 01:26:20;;;;;;;5.50;2.70;;;;;;;;;;7392780;19;20002;-76
2022/12/06 01:28:46;;;;;;;4.88;2.55;;;;;;;;;;7393840;19;20018;-76
2022/12/06 01:31:12;;;;;;;5.20;2.75;;;;;;;;;;7393875;19;19999;-74
2022/12/06 01:33:37;;;;;;;5.25;2.50;;;;;;;;;;7393600;19;19999;-76
2022/12/06 01:36:03;;;;;;;4.50;2.50;;;;;;;;;;7392731;19;19990;-74
2022/12/06 01:38:29;;;;;;;5.63;2.67;;;;;;;;;;7392634;19;19997;-76
2022/12/06 01:40:54;;;;;;;4.35;2.42;;;;;;;;;;7393270;19;19998;-75
2022/12/06 01:43:42;;;;;;;6.13;2.90;;;;;;;;;;7392569;19;20484;-75
2022/12/06 01:46:20;;;;;;;5.55;2.75;;;;;;;;;;7391409;19;20002;-75
2022/12/06 01:48:49;;;;;;;5.65;2.92;;;;;;;;;;7392572;19;20013;-75
2022/12/06 01:51:14;;;;;;;5.80;2.90;;;;;;;;;;7392492;19;20001;-75
2022/12/06 01:53:42;;;;;;;6.28;2.97;;;;;;;;;;7392159;19;19998;-75
2022/12/06 01:56:08;;;;;;;5.07;2.88;;;;;;;;;;7390764;19;20386;-75
2022/12/06 01:58:39;;;;;;;5.40;2.60;;;;;;;;;;7391317;19;20010;-76
2022/12/06 02:01:06;;;;;;;4.93;2.90;;;;;;;;;;7392033;19;20006;-75
2022/12/06 02:03:33;;;;;;;4.50;2.65;;;;;;;;;;7391532;19;20140;-76
2022/12/06 02:06:00;;;;;;;5.72;3.05;;;;;;;;;;7392960;19;20015;-75
2022/12/06 02:08:27;;;;;;;5.80;2.70;;;;;;;;;;7391917;19;20007;-76
2022/12/06 02:10:53;;;;;;;5.70;2.90;;;;;;;;;;7391754;19;20007;-75
2022/12/06 02:13:19;;;;;;;5.22;2.92;;;;;;;;;;7388973;19;19991;-76
2022/12/06 02:16:12;;;;;;;5.00;2.70;;;;;;;;;;7390676;19;20041;-75
2022/12/06 02:18:50;;;;;;;5.43;2.80;;;;;;;;;;7390787;19;20082;-75
2022/12/06 02:21:24;;;;;;;5.43;2.63;;;;;;;;;;7389466;19;20007;-75
2022/12/06 02:24:14;;;;;;;6.65;2.90;;;;;;;;;;7391908;19;19999;-75
2022/12/06 02:26:46;;;;;;;4.90;2.63;;;;;;;;;;7389792;19;20018;-75
2022/12/06 02:29:50;;;;;;;5.65;2.67;;;;;;;;;;7389043;19;20013;-74
2022/12/06 02:32:56;;;;;;;5.95;2.90;;;;;;;;;;7386259;19;20648;-76
2022/12/06 02:35:34;;;;;;;4.95;2.55;;;;;;;;;;7386467;19;19994;-75
2022/12/06 02:38:20;;;;;;;5.13;2.63;;;;;;;;;;7390063;19;20003;-76
2022/12/06 02:40:52;;;;;;;5.38;2.95;;;;;;;;;;7390335;19;20024;-75
2022/12/06 02:43:22;;;;;;;5.28;2.83;;;;;;;;;;7389698;19;20002;-75
2022/12/06 02:45:52;;;;;;;5.50;2.70;;;;;;;;;;7389283;19;20456;-76
2022/12/06 02:48:20;;;;;;;5.07;2.75;;;;;;;;;;7390441;19;20111;-75
2022/12/06 02:50:52;;;;;;;4.88;2.90;;;;;;;;;;7390265;19;19999;-76
2022/12/06 02:53:21;;;;;;;6.18;3.25;;;;;;;;;;7389492;19;20470;-75
2022/12/06 02:55:48;;;;;;;5.22;2.92;;;;;;;;;;7388907;19;20019;-75
2022/12/06 02:58:14;;;;;;;8.70;2.97;;;;;;;;;;7389198;19;20058;-76
2022/12/06 03:00:51;;;;;;;4.88;2.75;;;;;;;;;;7393309;19;20519;-74
2022/12/06 03:03:42;;;;;;;5.25;2.80;;;;;;;;;;7389251;19;19998;-74
2022/12/06 03:06:11;;;;;;;;;;;;;;;;;;7389293;19;20009;-74
2022/12/06 03:08:56;;;;;;;5.10;2.63;;;;;;;;;;7388536;19;19923;-75
2022/12/06 03:11:25;;;;;;;5.72;2.70;;;;;;;;;;7390147;19;20341;-75
2022/12/06 03:14:08;;;;;;;6.07;2.80;;;;;;;;;;7389347;19;20002;-75
2022/12/06 03:16:47;;;;;;;5.07;2.67;;;;;;;;;;7388439;19;20067;-76
2022/12/06 03:19:19;;;;;;;4.60;2.72;;;;;;;;;;7389177;19;20107;-76
2022/12/06 03:22:02;;;;;;;5.35;2.90;;;;;;;;;;7390032;19;20010;-75
2022/12/06 03:24:30;;;;;;;8.40;3.33;;;;;;;;;;7387864;19;20038;-75
2022/12/06 03:26:58;;;;;;;6.72;2.78;;;;;;;;;;7391564;19;20010;-75
2022/12/06 03:29:26;;;;;;;5.25;2.83;;;;;;;;;;7391545;19;19995;-74
2022/12/06 03:31:54;;;;;;;4.97;2.97;;;;;;;;;;7392780;19;20325;-74
2022/12/06 03:34:36;;;;;;;5.05;2.75;;;;;;;;;;7391079;19;20431;-76
2022/12/06 03:37:04;;;;;;;5.20;2.72;;;;;;;;;;7386116;19;20428;-75
2022/12/06 03:40:06;;;;;;;6.65;2.97;;;;;;;;;;7388082;19;20519;-76
2022/12/06 03:42:32;;;;;;;5.78;3.03;;;;;;;;;;7388638;19;20009;-75
2022/12/06 03:44:59;;;;;;;7.20;3.03;;;;;;;;;;7388151;19;20658;-75
2022/12/06 03:47:32;;;;;;;5.97;3.00;;;;;;;;;;7388307;19;20009;-76
2022/12/06 03:50:02;;;;;;;6.50;3.42;;;;;;;;;;7387104;19;20080;-75
2022/12/06 03:52:28;;;;;;;5.18;2.95;;;;;;;;;;7388568;19;20002;-75
2022/12/06 03:54:53;;;;;;;6.28;3.20;;;;;;;;;;7386412;19;20595;-75
2022/12/06 03:57:19;;;;;;;5.60;2.72;;;;;;;;;;7387539;19;20032;-75
2022/12/06 03:59:45;;;;;;;5.95;3.05;;;;;;;;;;7387118;19;20036;-76
2022/12/06 04:02:10;;;;;;;5.32;2.75;;;;;;;;;;7389171;19;20066;-76
2022/12/06 04:04:36;;;;;;;6.07;2.83;;;;;;;;;;7387742;19;20122;-75
2022/12/06 04:07:01;;;;;;;6.07;2.83;;;;;;;;;;7385207;19;20058;-75
2022/12/06 04:14:54;;;;;;;5.57;3.10;;;;;;;;;;7387609;19;20009;-75
2022/12/06 04:20:04;;;;;;;5.60;3.10;;;;;;;;;;7385869;19;20348;-74
2022/12/06 04:25:13;;;;;;;6.18;3.22;;;;;;;;;;7387180;19;20480;-73
2022/12/06 04:38:46;;;;;;;5.35;2.80;;;;;;;;;;7386638;19;20005;-74
2022/12/06 04:43:40;;;;;;;5.90;2.83;;;;;;;;;;7387017;19;20009;-76
2022/12/06 04:44:02;;;;;;;6.00;3.00;;;;;;;;;;7386327;19;20061;-76
2022/12/06 04:46:28;;;;;;;6.75;3.00;;;;;;;;;;7385793;19;20003;-75
2022/12/06 04:48:53;;;;;;;6.32;3.05;;;;;;;;;;7393390;19;19999;-74
2022/12/06 04:51:19;;;;;;;6.53;3.08;;;;;;;;;;7401961;19;20042;-76
2022/12/06 04:53:45;;;;;;;5.20;2.70;;;;;;;;;;7400812;19;20098;-74
2022/12/06 04:56:10;;;;;;;4.93;2.92;;;;;;;;;;7385412;19;20309;-75
2022/12/06 04:58:36;;;;;;;5.78;3.15;;;;;;;;;;7389693;19;19995;-75
2022/12/06 05:01:01;;;;;;;5.70;3.15;;;;;;;;;;7389505;19;20003;-76
2022/12/06 05:03:26;;;;;;;5.28;3.13;;;;;;;;;;7397516;19;19994;-75
2022/12/06 05:05:52;;;;;;;5.40;2.83;;;;;;;;;;7393331;19;20035;-74
2022/12/06 05:08:17;;;;;;;5.65;3.08;;;;;;;;;;7391506;19;20074;-75
2022/12/06 05:10:47;;;;;;;5.78;3.08;;;;;;;;;;7393319;19;20069;-75
2022/12/06 05:13:14;;;;;;;5.95;3.40;;;;;;;;;;7393158;19;20019;-75
2022/12/06 05:15:47;;;;;;;7.65;3.42;;;;;;;;;;7393200;19;20006;-76
2022/12/06 05:18:12;;;;;;;5.85;2.92;;;;;;;;;;7393186;19;20407;-74
2022/12/06 05:20:38;;;;;;;5.53;3.15;;;;;;;;;;7393513;19;19999;-75
2022/12/06 05:23:03;;;;;;;5.68;3.13;;;;;;;;;;7391152;19;20002;-76
2022/12/06 05:25:28;;;;;;;6.95;3.25;;;;;;;;;;7390760;19;20010;-76
2022/12/06 05:27:54;;;;;;;6.50;3.13;;;;;;;;;;7391123;19;20566;-74
2022/12/06 05:30:19;;;;;;;6.43;3.40;;;;;;;;;;7392634;19;19999;-75
2022/12/06 05:32:44;;;;;;;7.72;3.60;;;;;;;;;;7391506;19;20014;-76
2022/12/06 05:35:10;;;;;;;7.18;3.92;;;;;;;;;;7395150;19;19995;-74
2022/12/06 05:37:35;;;;;;;7.05;3.75;;;;;;;;;;7396557;19;19995;-74
2022/12/06 05:40:00;;;;;;;6.63;3.58;;;;;;;;;;7391137;19;20061;-74
2022/12/06 05:42:26;;;;;;;6.45;3.50;;;;;;;;;;7392185;19;20003;-75
2022/12/06 05:44:51;;;;;;;7.07;4.10;;;;;;;;;;7396712;19;20003;-76
2022/12/06 05:47:25;;;;;;;7.45;3.95;;;;;;;;;;7394454;19;20018;-75
2022/12/06 05:49:50;;;;;;;8.60;3.83;;;;;;;;;;7398236;19;20351;-74
2022/12/06 05:52:18;;;;;;;7.07;4.10;;;;;;;;;;7399483;19;19998;-76
2022/12/06 05:54:44;;;;;;;7.13;3.88;;;;;;;;;;7397103;19;20006;-75
2022/12/06 05:57:09;;;;;;;5.93;3.50;;;;;;;;;;7389764;19;20468;-75
2022/12/06 05:59:34;;;;;;;8.18;3.95;;;;;;;;;;7391394;19;20011;-76
2022/12/06 06:02:00;;;;;;;7.85;4.03;;;;;;;;;;7393199;19;19998;-76
2022/12/06 06:04:25;;;;;;;7.68;3.65;;;;;;;;;;7392047;19;19999;-76
2022/12/06 06:06:50;;;;;;;8.43;3.80;;;;;;;;;;7392525;19;20090;-76
2022/12/06 06:09:16;;;;;;;6.65;3.70;;;;;;;;;;7326682;19;20007;-73
2022/12/06 06:11:41;;;;;;;6.53;3.88;;;;;;;;;;7389709;19;20088;-74
2022/12/06 06:14:09;;;;;;;7.55;3.88;;;;;;;;;;7391823;19;20023;-75
2022/12/06 06:16:35;;;;;;;8.02;3.97;;;;;;;;;;7391101;19;20010;-76
2022/12/06 06:19:00;;;;;;;6.35;3.80;;;;;;;;;;7385521;19;20460;-74
2022/12/06 06:21:26;;;;;;;6.82;3.88;;;;;;;;;;7393372;19;20320;-76
2022/12/06 06:23:51;;;;;;;7.07;3.95;;;;;;;;;;7395391;19;20021;-73
2022/12/06 06:26:17;;;;;;;6.30;3.90;;;;;;;;;;7391429;19;20195;-74
2022/12/06 06:28:42;;;;;;;9.23;4.05;;;;;;;;;;7384669;19;20005;-75
2022/12/06 06:31:07;;;;;;;7.10;3.58;;;;;;;;;;7332132;19;20392;-75
2022/12/06 06:33:37;;;;;;;7.60;3.58;;;;;;;;;;7337960;19;1005188;-76
2022/12/06 06:36:03;;;;;;;6.20;3.60;;;;;;;;;;7389759;19;19993;-74
2022/12/06 06:38:29;;;;;;;7.63;4.10;;;;;;;;;;7392712;19;20024;-76
2022/12/06 06:40:54;;;;;;;6.45;3.58;;;;;;;;;;7392137;19;20006;-76
2022/12/06 06:43:19;;;;;;;7.05;4.13;;;;;;;;;;7393280;19;20009;-75
2022/12/06 06:46:05;;;;;;;7.13;3.92;;;;;;;;;;7393147;19;20667;-76
2022/12/06 06:48:37;;;;;;;7.55;3.97;;;;;;;;;;7390154;19;20003;-75
2022/12/06 06:51:07;;;;;;;8.38;4.32;;;;;;;;;;7392474;19;19999;-74
2022/12/06 06:53:33;;;;;;;5.38;2.83;;;;;;;;;;7394378;19;20026;-76
2022/12/06 06:55:58;;;;;;;7.00;3.45;;;;;;;;;;7394018;19;20021;-74
2022/12/06 06:58:24;;;;;;;5.78;3.03;;;;;;;;;;7394025;19;19999;-76
2022/12/06 07:00:59;;;;;;;5.63;2.47;;;;;;;;;;7394069;19;20108;-74
2022/12/06 07:03:26;;;;;;;5.03;2.65;;;;;;;;;;7390456;19;20011;-75
2022/12/06 07:05:53;;;;;;;5.50;2.80;;;;;;;;;;7391661;19;20499;-75
2022/12/06 07:08:19;;;;;;;5.75;2.83;;;;;;;;;;7392229;19;20069;-75
2022/12/06 07:10:47;;;;;;;5.95;3.13;;;;;;;;;;7393004;19;20029;-75
2022/12/06 07:13:14;;;;;;;7.90;2.97;;;;;;;;;;7390486;19;20018;-76
2022/12/06 07:15:39;;;;;;;6.40;3.10;;;;;;;;;;7394028;19;19995;-75
2022/12/06 07:18:05;;;;;;;5.90;2.92;;;;;;;;;;7392538;19;20079;-75
2022/12/06 07:20:30;;;;;;;5.50;2.85;;;;;;;;;;7389157;19;20507;-75
2022/12/06 07:22:55;;;;;;;5.70;2.70;;;;;;;;;;7388100;19;20001;-75
2022/12/06 07:25:21;;;;;;;5.82;2.92;;;;;;;;;;7384450;19;20417;-74
2022/12/06 07:27:46;;;;;;;4.97;2.63;;;;;;;;;;7387288;19;20399;-75
2022/12/06 07:30:12;;;;;;;6.78;3.17;;;;;;;;;;7386829;19;19999;-75
2022/12/06 07:32:37;;;;;;;6.20;2.63;;;;;;;;;;7384751;19;20368;-75
2022/12/06 07:35:03;;;;;;;6.28;2.75;;;;;;;;;;7388320;19;20001;-74
2022/12/06 07:37:29;;;;;;;6.53;2.65;;;;;;;;;;7389316;19;20003;-75
2022/12/06 07:39:57;;;;;;;7.20;3.05;;;;;;;;;;7389484;19;20025;-74
2022/12/06 07:45:09;;;;;;;5.60;3.05;;;;;;;;;;7392072;19;20013;-76
2022/12/06 07:47:36;;;;;;;6.10;3.28;;;;;;;;;;7390998;19;20015;-75
2022/12/06 07:50:03;;;;;;;5.05;2.53;;;;;;;;;;7389198;19;20023;-74
2022/12/06 07:52:31;;;;;;;7.10;2.95;;;;;;;;;;7388588;19;20024;-76
2022/12/06 07:54:56;;;;;;;5.60;3.40;;;;;;;;;;7390935;19;20301;-76
2022/12/06 07:57:22;;;;;;;6.97;3.47;;;;;;;;;;7388669;19;20349;-74
2022/12/06 07:59:47;;;;;;;4.43;2.63;;;;;;;;;;7389183;19;20002;-74
2022/12/06 08:02:18;;;;;;;9.88;3.25;;;;;;;;;;7384635;19;20005;-74
2022/12/06 08:04:43;;;;;;;;;;;;;;;;;;7391561;19;20467;-74
2022/12/06 08:07:09;;;;;;;6.07;2.55;;;;;;;;;;7388017;19;19974;-74
2022/12/06 08:09:34;;;;;;;4.03;2.47;;;;;;;;;;7390123;19;19998;-74
2022/12/06 08:11:59;;;;;;;6.57;2.80;;;;;;;;;;7389885;19;19999;-73
2022/12/06 08:14:25;;;;;;;5.57;2.70;;;;;;;;;;7390469;19;20005;-74
2022/12/06 08:16:51;;;;;;;7.78;3.15;;;;;;;;;;7386486;19;20006;-75
2022/12/06 08:19:16;;;;;;;5.60;2.40;;;;;;;;;;7389838;19;20003;-75
2022/12/06 08:21:41;;;;;;;6.30;2.70;;;;;;;;;;7391013;19;20026;-74
2022/12/06 08:24:07;;;;;;;4.20;2.40;;;;;;;;;;7390068;19;20015;-74
2022/12/06 08:26:32;;;;;;;5.45;2.53;;;;;;;;;;7387488;19;19998;-74
2022/12/06 08:29:01;;;;;;;5.57;2.78;;;;;;;;;;7390312;19;20717;-72
2022/12/06 08:31:27;;;;;;;6.32;2.88;;;;;;;;;;7391257;19;20009;-73
2022/12/06 08:33:53;;;;;;;4.43;2.40;;;;;;;;;;7397503;19;20400;-75
2022/12/06 08:36:20;;;;;;;4.85;2.65;;;;;;;;;;7394178;19;20012;-73
2022/12/06 08:38:46;;;;;;;6.55;2.63;;;;;;;;;;7398318;19;20002;-75
2022/12/06 08:43:58;;;;;;;6.75;2.60;;;;;;;;;;7397794;19;20016;-74
2022/12/06 08:46:24;;;;;;;5.65;2.95;;;;;;;;;;7395805;19;19998;-76
2022/12/06 08:48:50;;;;;;;4.85;2.45;;;;;;;;;;7395315;19;19999;-73
2022/12/06 08:51:16;;;;;;;5.63;2.70;;;;;;;;;;7397734;19;20003;-74
2022/12/06 08:53:41;;;;;;;6.55;3.00;;;;;;;;;;7395971;19;20368;-72
2022/12/06 08:56:08;;;;;;;9.27;2.50;;;;;;;;;;7396271;19;20363;-72
2022/12/06 08:58:33;;;;;;;4.57;2.38;;;;;;;;;;7397255;19;20022;-72
2022/12/06 09:00:58;;;;;;;5.43;2.85;;;;;;;;;;7406698;19;20263;-73
2022/12/06 09:03:25;;;;;;;8.15;2.97;;;;;;;;;;7396376;19;19995;-72
2022/12/06 09:05:50;;;;;;;4.68;2.60;;;;;;;;;;7394608;19;20567;-75
2022/12/06 09:08:15;;;;;;;5.30;2.55;;;;;;;;;;7394064;19;20002;-74
2022/12/06 09:10:42;;;;;;;5.35;2.58;;;;;;;;;;7391895;19;19997;-72
2022/12/06 09:13:07;;;;;;;4.95;2.80;;;;;;;;;;7393801;19;20545;-73
2022/12/06 09:15:32;;;;;;;5.53;2.88;;;;;;;;;;7393673;19;20046;-74
2022/12/06 09:17:58;;;;;;;4.38;2.40;;;;;;;;;;7393240;19;19999;-73
2022/12/06 09:20:23;;;;;;;4.80;2.50;;;;;;;;;;7392510;19;19991;-73
2022/12/06 09:22:48;;;;;;;5.43;2.78;;;;;;;;;;7395000;19;19991;-74
2022/12/06 09:25:14;;;;;;;6.07;2.90;;;;;;;;;;7396212;19;20002;-73
2022/12/06 09:27:39;;;;;;;5.93;2.83;;;;;;;;;;7395387;19;20021;-74
2022/12/06 09:30:05;;;;;;;7.43;2.78;;;;;;;;;;7393737;19;20083;-70
2022/12/06 09:32:31;;;;;;;6.10;2.88;;;;;;;;;;7395309;19;19999;-71
2022/12/06 09:34:56;;;;;;;5.40;2.55;;;;;;;;;;7392840;19;20001;-71
2022/12/06 09:37:22;;;;;;;5.28;2.75;;;;;;;;;;7392067;19;19995;-70
2022/12/06 09:39:52;;;;;;;5.00;2.92;;;;;;;;;;7394056;19;19995;-72
2022/12/06 09:42:55;;;;;;;6.13;2.83;;;;;;;;;;7392133;19;20030;-71
2022/12/06 09:45:51;;;;;;;4.80;2.63;;;;;;;;;;7394116;19;19998;-76
2022/12/06 09:48:44;;;;;;;5.60;2.38;;;;;;;;;;7392414;19;20005;-75
2022/12/06 09:51:19;;;;;;;7.07;3.05;;;;;;;;;;7391559;19;20009;-76
2022/12/06 09:54:02;;;;;;;5.53;2.78;;;;;;;;;;7394505;19;20002;-76
2022/12/06 09:56:27;;;;;;;5.95;2.70;;;;;;;;;;7391597;19;20367;-74
2022/12/06 09:59:23;;;;;;;4.55;2.40;;;;;;;;;;7392975;19;20006;-76
2022/12/06 10:02:25;;;;;;;8.77;2.70;;;;;;;;;;7391947;19;20070;-73
2022/12/06 10:05:35;;;;;;;4.75;2.45;;;;;;;;;;7391506;19;20003;-74
2022/12/06 10:08:08;;;;;;;4.95;2.70;;;;;;;;;;7387840;19;19997;-76
2022/12/06 10:10:43;;;;;;;5.65;2.50;;;;;;;;;;7389092;19;20002;-75
2022/12/06 10:13:25;;;;;;;7.18;2.70;;;;;;;;;;7389248;19;20430;-75
2022/12/06 10:16:07;;;;;;;6.63;2.70;;;;;;;;;;7393701;19;19994;-76
2022/12/06 10:19:10;;;;;;;5.40;2.80;;;;;;;;;;7391408;19;20314;-74
2022/12/06 10:21:48;;;;;;;4.38;2.60;;;;;;;;;;7394590;19;20472;-74
2022/12/06 10:24:45;;;;;;;6.63;2.58;;;;;;;;;;7390824;19;20002;-75
2022/12/06 10:27:26;;;;;;;5.40;2.70;;;;;;;;;;7390883;19;20003;-76
2022/12/06 10:30:02;;;;;;;6.47;3.30;;;;;;;;;;7394603;19;20373;-76
2022/12/06 10:32:43;;;;;;;6.63;3.28;;;;;;;;;;7394297;19;20006;-76
2022/12/06 10:35:42;;;;;;;11.48;5.15;;;;;;;;;;7392562;19;20384;-75
2022/12/06 10:38:27;;;;;;;6.47;3.42;;;;;;;;;;7390989;19;19995;-74
2022/12/06 10:41:14;;;;;;;6.72;2.97;;;;;;;;;;7393653;19;20597;-74
2022/12/06 10:43:52;;;;;;;5.97;2.60;;;;;;;;;;7394886;19;20015;-73
2022/12/06 10:49:24;;;;;;;4.63;2.30;;;;;;;;;;7337798;19;1005075;-74
2022/12/06 10:52:05;;;;;;;3.53;2.15;;;;;;;;;;7394596;19;20054;-74
2022/12/06 10:54:36;;;;;;;4.95;2.63;;;;;;;;;;7391076;19;19994;-73
2022/12/06 10:57:06;;;;;;;5.88;2.50;;;;;;;;;;7388075;19;20011;-71
2022/12/06 10:59:50;;;;;;;4.55;2.70;;;;;;;;;;7389911;19;20136;-70
2022/12/06 11:02:37;;;;;;;3.47;2.10;;;;;;;;;;7389954;19;20009;-70
2022/12/06 11:05:12;;;;;;;4.07;2.28;;;;;;;;;;7388516;19;19994;-72
2022/12/06 11:07:41;;;;;;;5.68;2.80;;;;;;;;;;7385345;19;20003;-70
2022/12/06 11:10:23;;;;;;;3.97;2.33;;;;;;;;;;7382652;19;20002;-71
2022/12/06 11:12:52;;;;;;;;;;;;;;;;;;7378288;19;20022;-71
2022/12/06 11:15:37;;;;;;;5.15;2.75;;;;;;;;;;7382252;19;19985;-70
2022/12/06 11:18:09;;;;;;;4.18;2.47;;;;;;;;;;7380412;19;20527;-71
2022/12/06 11:20:57;;;;;;;7.13;2.92;;;;;;;;;;7384496;19;20003;-72
2022/12/06 11:23:25;;;;;;;4.30;2.30;;;;;;;;;;7388696;19;20010;-70
2022/12/06 11:26:10;;;;;;;5.78;2.40;;;;;;;;;;7391608;19;20004;-71
2022/12/06 11:28:40;;;;;;;4.80;2.97;;;;;;;;;;7389528;19;20058;-70
2022/12/06 11:31:14;;;;;;;4.90;2.58;;;;;;;;;;7389925;19;20348;-72
2022/12/06 11:33:40;;;;;;;5.35;2.50;;;;;;;;;;7391098;19;20001;-71
2022/12/06 11:36:08;;;;;;;4.55;2.50;;;;;;;;;;7388416;19;20489;-71
2022/12/06 11:38:35;;;;;;;5.28;2.55;;;;;;;;;;7389233;19;20002;-76
2022/12/06 11:41:03;;;;;;;5.13;2.80;;;;;;;;;;7391687;19;20108;-76
2022/12/06 11:43:34;;;;;;;6.68;2.55;;;;;;;;;;7389094;19;20015;-77
2022/12/06 11:46:00;;;;;;;4.25;2.40;;;;;;;;;;7389449;19;19998;-76
2022/12/06 11:48:29;;;;;;;5.55;2.70;;;;;;;;;;7387733;19;19994;-76
2022/12/06 11:50:55;;;;;;;4.60;2.55;;;;;;;;;;7391174;19;19995;-78
2022/12/06 11:53:32;;;;;;;5.05;2.78;;;;;;;;;;7390226;19;20066;-71
2022/12/06 11:56:05;;;;;;;5.30;2.40;;;;;;;;;;7383484;19;20002;-71
2022/12/06 11:58:44;;;;;;;4.97;2.75;;;;;;;;;;7389349;19;20096;-74
2022/12/06 12:01:13;;;;;;;4.25;2.50;;;;;;;;;;7388390;19;20002;-73
2022/12/06 12:03:41;;;;;;;4.70;2.78;;;;;;;;;;7386881;19;20018;-73
2022/12/06 12:06:27;;;;;;;5.20;2.70;;;;;;;;;;7386914;19;20019;-72
2022/12/06 12:08:59;;;;;;;4.85;2.70;;;;;;;;;;7398982;19;20022;-72
2022/12/06 12:11:31;;;;;;;4.07;2.67;;;;;;;;;;7394223;19;20516;-72
2022/12/06 12:14:13;;;;;;;4.97;2.50;;;;;;;;;;7396087;19;20070;-72
2022/12/06 12:16:48;;;;;;;4.60;2.63;;;;;;;;;;7395286;19;20002;-71
2022/12/06 12:19:29;;;;;;;5.35;2.67;;;;;;;;;;7395873;19;20480;-72
2022/12/06 12:21:57;;;;;;;5.90;2.97;;;;;;;;;;7397304;19;20001;-71
2022/12/06 12:24:46;;;;;;;5.75;3.00;;;;;;;;;;7397747;19;20010;-72
2022/12/06 12:27:34;;;;;;;6.70;3.40;;;;;;;;;;7394093;19;19998;-72
2022/12/06 12:30:25;;;;;;;4.65;2.72;;;;;;;;;;7397493;19;20019;-71
2022/12/06 12:33:07;;;;;;;;;;;;;;;;;;7395524;19;20002;-71
2022/12/06 12:35:34;;;;;;;5.10;2.25;;;;;;;;;;7396892;19;20332;-71
2022/12/06 12:38:36;;;;;;;6.55;2.38;;;;;;;;;;7394726;19;20006;-71
2022/12/06 12:41:04;;;;;;;;;;;;;;;;;;7396615;19;19991;-71
2022/12/06 12:43:32;;;;;;;3.90;2.20;;;;;;;;;;7396712;19;19911;-72
2022/12/06 12:46:09;;;;;;;5.55;2.83;;;;;;;;;;7392772;19;20008;-71
2022/12/06 12:48:36;;;;;;;5.25;2.28;;;;;;;;;;7395365;19;20391;-74
2022/12/06 12:51:25;;;;;;;3.17;2.10;;;;;;;;;;7395838;19;19995;-74
2022/12/06 12:54:14;;;;;;;4.25;2.05;;;;;;;;;;7396462;19;20342;-75
2022/12/06 12:56:39;;;;;;;3.45;2.17;;;;;;;;;;7395606;19;19999;-71
2022/12/06 12:59:12;;;;;;;3.92;2.30;;;;;;;;;;7392293;19;19991;-71
2022/12/06 13:01:44;;;;;;;4.07;2.25;;;;;;;;;;7395685;19;19998;-71
2022/12/06 13:04:09;;;;;;;7.55;2.50;;;;;;;;;;7394372;19;20005;-73
2022/12/06 13:06:44;;;;;;;4.22;2.20;;;;;;;;;;7394041;19;20026;-74
2022/12/06 13:09:27;;;;;;;3.58;2.10;;;;;;;;;;7396237;19;20927;-72
2022/12/06 13:12:09;;;;;;;4.85;2.55;;;;;;;;;;7397353;19;19998;-74
2022/12/06 13:14:38;;;;;;;5.15;3.03;;;;;;;;;;7394953;19;20019;-74
2022/12/06 13:17:06;;;;;;;4.65;2.58;;;;;;;;;;7394765;19;20002;-72
2022/12/06 13:19:37;;;;;;;9.80;3.42;;;;;;;;;;7392130;19;20380;-72
2022/12/06 13:22:04;;;;;;;4.50;2.50;;;;;;;;;;7394944;19;20006;-71
2022/12/06 13:24:31;;;;;;;6.68;3.60;;;;;;;;;;7394965;19;19999;-71
2022/12/06 13:27:10;;;;;;;7.47;3.42;;;;;;;;;;7394252;19;20018;-72
2022/12/06 13:29:58;;;;;;;6.78;3.63;;;;;;;;;;7395255;19;19999;-69
2022/12/06 13:32:44;;;;;;;5.32;3.20;;;;;;;;;;7394797;19;20900;-70
2022/12/06 13:35:28;;;;;;;4.88;2.55;;;;;;;;;;7395528;19;20002;-70
2022/12/06 13:38:00;;;;;;;6.22;2.72;;;;;;;;;;7395683;19;20070;-71
2022/12/06 13:40:31;;;;;;;5.13;2.58;;;;;;;;;;7392408;19;20036;-71
2022/12/06 13:42:57;;;;;;;;;;;;;;;;;;7396952;19;20015;-70
2022/12/06 13:45:34;;;;;;;5.35;2.70;;;;;;;;;;7397296;19;19915;-70
2022/12/06 13:48:00;;;;;;;5.28;2.55;;;;;;;;;;7389289;19;19999;-70
2022/12/06 13:50:25;;;;;;;6.05;2.50;;;;;;;;;;7393382;19;20007;-70
2022/12/06 13:52:50;;;;;;;5.57;2.60;;;;;;;;;;7393124;19;20002;-70
2022/12/06 13:55:25;;;;;;;3.92;2.25;;;;;;;;;;7393716;19;19998;-70
2022/12/06 13:57:59;;;;;;;6.00;2.60;;;;;;;;;;7393721;19;20097;-71
2022/12/06 14:00:27;;;;;;;5.15;2.83;;;;;;;;;;7391532;19;20471;-71
2022/12/06 14:03:11;;;;;;;7.65;3.03;;;;;;;;;;7394735;19;20345;-71
2022/12/06 14:06:01;;;;;;;5.10;2.45;;;;;;;;;;7392957;19;19998;-71
2022/12/06 14:08:39;;;;;;;4.53;2.40;;;;;;;;;;7392065;19;20345;-70
2022/12/06 14:11:16;;;;;;;4.38;2.60;;;;;;;;;;7393073;19;20013;-74
2022/12/06 14:13:47;;;;;;;5.40;3.17;;;;;;;;;;7393361;19;20006;-75
2022/12/06 14:16:29;;;;;;;5.38;3.00;;;;;;;;;;7393781;19;19994;-75
2022/12/06 14:18:54;;;;;;;5.03;2.67;;;;;;;;;;7393503;19;20004;-71
2022/12/06 14:21:33;;;;;;;5.47;2.75;;;;;;;;;;7394002;19;20362;-73
2022/12/06 14:23:58;;;;;;;5.82;3.40;;;;;;;;;;7392648;19;20333;-72
2022/12/06 14:26:26;;;;;;;9.10;3.35;;;;;;;;;;7392270;19;20005;-72
2022/12/06 14:28:55;;;;;;;8.75;3.13;;;;;;;;;;7391469;19;19999;-74
2022/12/06 14:31:20;;;;;;;5.78;3.33;;;;;;;;;;7390971;19;20074;-72
2022/12/06 14:33:46;;;;;;;7.25;3.28;;;;;;;;;;7390118;19;20007;-71
2022/12/06 14:36:22;;;;;;;6.82;3.30;;;;;;;;;;7388021;19;20010;-72
2022/12/06 14:38:54;;;;;;;6.65;3.30;;;;;;;;;;7390943;19;20480;-72
2022/12/06 14:44:15;;;;;;;6.78;3.20;;;;;;;;;;7387351;19;20119;-72
2022/12/06 14:46:43;;;;;;;6.68;3.33;;;;;;;;;;7386368;19;20325;-71
2022/12/06 14:51:56;;;;;;;6.53;3.53;;;;;;;;;;7392363;19;20062;-70
2022/12/06 14:54:35;;;;;;;5.18;2.75;;;;;;;;;;7389366;19;20440;-70
2022/12/06 14:57:01;;;;;;;6.05;3.30;;;;;;;;;;7388327;19;19994;-71
2022/12/06 14:59:27;;;;;;;7.18;3.30;;;;;;;;;;7391720;19;20019;-70
2022/12/06 15:01:55;;;;;;;7.95;3.35;;;;;;;;;;7391995;19;19998;-72
2022/12/06 15:04:27;;;;;;;6.90;3.30;;;;;;;;;;7390371;19;20377;-70
2022/12/06 15:06:55;;;;;;;6.68;3.47;;;;;;;;;;7391155;19;19999;-70
2022/12/06 15:09:21;;;;;;;8.82;3.65;;;;;;;;;;7390731;19;19995;-73
2022/12/06 15:14:38;;;;;;;7.57;3.67;;;;;;;;;;7388332;19;20006;-72
2022/12/06 15:17:06;;;;;;;;;;;;;;;;;;7392459;19;20002;-71
2022/12/06 15:19:34;;;;;;;7.03;3.30;;;;;;;;;;7382398;19;20003;-72
2022/12/06 15:22:00;;;;;;;8.80;3.85;;;;;;;;;;7389668;19;20073;-71
2022/12/06 15:24:27;;;;;;;6.30;3.42;;;;;;;;;;7389420;19;20481;-70
2022/12/06 15:26:53;;;;;;;7.40;4.07;;;;;;;;;;7389667;19;20006;-70
2022/12/06 15:29:18;;;;;;;6.68;4.03;;;;;;;;;;7391231;19;20530;-70
2022/12/06 15:31:51;;;;;;;7.90;3.92;;;;;;;;;;7393345;19;20074;-72
2022/12/06 15:34:26;;;;;;;7.03;3.85;;;;;;;;;;7390699;19;20012;-72
2022/12/06 15:36:53;;;;;;;7.07;3.90;;;;;;;;;;7392093;19;20035;-71
2022/12/06 15:39:18;;;;;;;7.15;3.95;;;;;;;;;;7392161;19;20003;-70
2022/12/06 15:41:44;;;;;;;8.90;4.03;;;;;;;;;;7390773;19;19999;-71
2022/12/06 15:44:16;;;;;;;7.78;4.13;;;;;;;;;;7390645;19;20345;-71
2022/12/06 15:46:42;;;;;;;9.20;4.93;;;;;;;;;;7389402;19;20072;-71